sensor_id;sensor_type;location;lat;lon;timestamp;pressure;altitude;pressure_sealevel;temperature;humidity
70338;BME280;57757;53.198;19.646;2023-07-31T00:00:24;99482.27;;;16.95;53.60
70338;BME280;57757;53.198;19.646;2023-07-31T00:03:12;99483.60;;;16.91;53.78
70338;BME280;57757;53.198;19.646;2023-07-31T00:05:40;99483.89;;;16.89;53.84
70338;BME280;57757;53.198;19.646;2023-07-31T00:08:07;99477.07;;;16.86;53.86
70338;BME280;57757;53.198;19.646;2023-07-31T00:10:34;99476.64;;;16.84;54.11
70338;BME280;57757;53.198;19.646;2023-07-31T00:13:02;99477.97;;;16.82;54.21
70338;BME280;57757;53.198;19.646;2023-07-31T00:15:29;99478.07;;;16.81;54.28
70338;BME280;57757;53.198;19.646;2023-07-31T00:17:57;99471.89;;;16.79;54.38
70338;BME280;57757;53.198;19.646;2023-07-31T00:20:24;99471.41;;;16.78;54.49
70338;BME280;57757;53.198;19.646;2023-07-31T00:22:52;99468.84;;;16.77;54.58
70338;BME280;57757;53.198;19.646;2023-07-31T00:25:19;99468.05;;;16.75;54.64
70338;BME280;57757;53.198;19.646;2023-07-31T00:27:46;99467.11;;;16.73;54.69
70338;BME280;57757;53.198;19.646;2023-07-31T00:30:14;99472.58;;;16.72;54.85
70338;BME280;57757;53.198;19.646;2023-07-31T00:32:41;99473.51;;;16.71;54.98
70338;BME280;57757;53.198;19.646;2023-07-31T00:35:09;99473.79;;;16.70;55.03
70338;BME280;57757;53.198;19.646;2023-07-31T00:37:36;99472.42;;;16.66;55.06
70338;BME280;57757;53.198;19.646;2023-07-31T00:40:04;99468.01;;;16.64;55.18
70338;BME280;57757;53.198;19.646;2023-07-31T00:42:31;99466.10;;;16.60;55.20
70338;BME280;57757;53.198;19.646;2023-07-31T00:44:59;99469.70;;;16.56;55.37
70338;BME280;57757;53.198;19.646;2023-07-31T00:47:26;99473.23;;;16.52;55.47
70338;BME280;57757;53.198;19.646;2023-07-31T00:49:54;99473.74;;;16.49;55.49
70338;BME280;57757;53.198;19.646;2023-07-31T00:52:22;99483.77;;;16.46;55.72
70338;BME280;57757;53.198;19.646;2023-07-31T00:54:50;99483.77;;;16.43;55.75
70338;BME280;57757;53.198;19.646;2023-07-31T00:57:17;99480.33;;;16.42;55.87
70338;BME280;57757;53.198;19.646;2023-07-31T00:59:45;99478.91;;;16.43;56.07
70338;BME280;57757;53.198;19.646;2023-07-31T01:02:13;99481.79;;;16.44;56.16
70338;BME280;57757;53.198;19.646;2023-07-31T01:04:43;99477.76;;;16.47;56.24
70338;BME280;57757;53.198;19.646;2023-07-31T01:07:15;99477.21;;;16.50;56.27
70338;BME280;57757;53.198;19.646;2023-07-31T01:10:03;99477.05;;;16.53;56.36
70338;BME280;57757;53.198;19.646;2023-07-31T01:12:31;99480.21;;;16.56;56.47
70338;BME280;57757;53.198;19.646;2023-07-31T01:15:06;99481.03;;;16.57;56.41
70338;BME280;57757;53.198;19.646;2023-07-31T01:17:38;99483.08;;;16.58;56.49
70338;BME280;57757;53.198;19.646;2023-07-31T01:20:11;99483.45;;;16.61;56.49
70338;BME280;57757;53.198;19.646;2023-07-31T01:22:49;99491.44;;;16.62;56.61
70338;BME280;57757;53.198;19.646;2023-07-31T01:28:26;99494.63;;;16.65;56.79
70338;BME280;57757;53.198;19.646;2023-07-31T01:30:58;99497.73;;;16.66;56.64
70338;BME280;57757;53.198;19.646;2023-07-31T01:33:28;99498.88;;;16.67;56.70
70338;BME280;57757;53.198;19.646;2023-07-31T01:35:56;99492.27;;;16.69;56.63
70338;BME280;57757;53.198;19.646;2023-07-31T01:38:23;99492.27;;;16.72;56.61
70338;BME280;57757;53.198;19.646;2023-07-31T01:40:52;99490.52;;;16.75;56.54
70338;BME280;57757;53.198;19.646;2023-07-31T01:43:20;99493.48;;;16.78;56.56
70338;BME280;57757;53.198;19.646;2023-07-31T01:45:48;99493.67;;;16.81;56.43
70338;BME280;57757;53.198;19.646;2023-07-31T01:48:15;99490.77;;;16.83;56.42
70338;BME280;57757;53.198;19.646;2023-07-31T01:50:43;99492.61;;;16.84;56.33
70338;BME280;57757;53.198;19.646;2023-07-31T01:53:10;99495.73;;;16.85;56.35
70338;BME280;57757;53.198;19.646;2023-07-31T01:55:39;99499.21;;;16.86;56.26
70338;BME280;57757;53.198;19.646;2023-07-31T01:58:07;99498.22;;;16.84;56.22
70338;BME280;57757;53.198;19.646;2023-07-31T02:00:34;99494.79;;;16.83;56.33
70338;BME280;57757;53.198;19.646;2023-07-31T02:03:02;99490.16;;;16.81;56.31
70338;BME280;57757;53.198;19.646;2023-07-31T02:05:29;99490.33;;;16.78;56.32
70338;BME280;57757;53.198;19.646;2023-07-31T02:07:57;99490.19;;;16.75;56.42
70338;BME280;57757;53.198;19.646;2023-07-31T02:10:24;99490.25;;;16.70;56.42
70338;BME280;57757;53.198;19.646;2023-07-31T02:12:52;99490.15;;;16.66;56.43
70338;BME280;57757;53.198;19.646;2023-07-31T02:15:19;99495.83;;;16.62;56.53
70338;BME280;57757;53.198;19.646;2023-07-31T02:17:46;99498.52;;;16.59;56.60
70338;BME280;57757;53.198;19.646;2023-07-31T02:20:14;99497.83;;;16.55;56.72
70338;BME280;57757;53.198;19.646;2023-07-31T02:22:41;99499.21;;;16.49;56.80
70338;BME280;57757;53.198;19.646;2023-07-31T02:25:09;99498.73;;;16.43;56.92
70338;BME280;57757;53.198;19.646;2023-07-31T02:27:36;99496.90;;;16.38;57.06
70338;BME280;57757;53.198;19.646;2023-07-31T02:30:04;99496.47;;;16.33;57.11
70338;BME280;57757;53.198;19.646;2023-07-31T02:32:32;99496.98;;;16.28;57.21
70338;BME280;57757;53.198;19.646;2023-07-31T02:34:59;99490.03;;;16.23;57.24
70338;BME280;57757;53.198;19.646;2023-07-31T02:37:26;99488.01;;;16.19;57.38
70338;BME280;57757;53.198;19.646;2023-07-31T02:39:56;99494.11;;;16.16;57.38
70338;BME280;57757;53.198;19.646;2023-07-31T02:42:23;99498.06;;;16.15;57.43
70338;BME280;57757;53.198;19.646;2023-07-31T02:44:50;99499.75;;;16.13;57.54
70338;BME280;57757;53.198;19.646;2023-07-31T02:47:22;99493.77;;;16.10;57.57
70338;BME280;57757;53.198;19.646;2023-07-31T02:49:50;99497.40;;;16.08;57.60
70338;BME280;57757;53.198;19.646;2023-07-31T02:52:17;99497.51;;;16.06;57.66
70338;BME280;57757;53.198;19.646;2023-07-31T02:54:45;99502.52;;;16.04;57.70
70338;BME280;57757;53.198;19.646;2023-07-31T02:57:12;99503.08;;;16.04;57.76
70338;BME280;57757;53.198;19.646;2023-07-31T02:59:40;99504.79;;;16.02;57.83
70338;BME280;57757;53.198;19.646;2023-07-31T03:02:07;99511.66;;;16.01;57.98
70338;BME280;57757;53.198;19.646;2023-07-31T03:04:35;99509.60;;;16.00;57.97
70338;BME280;57757;53.198;19.646;2023-07-31T03:07:02;99509.06;;;16.00;58.09
70338;BME280;57757;53.198;19.646;2023-07-31T03:09:30;99513.06;;;16.01;58.15
70338;BME280;57757;53.198;19.646;2023-07-31T03:11:57;99514.39;;;16.02;58.20
70338;BME280;57757;53.198;19.646;2023-07-31T03:14:25;99521.35;;;16.03;58.23
70338;BME280;57757;53.198;19.646;2023-07-31T03:16:54;99529.19;;;16.04;58.27
70338;BME280;57757;53.198;19.646;2023-07-31T03:19:21;99522.01;;;16.04;58.29
70338;BME280;57757;53.198;19.646;2023-07-31T03:21:49;99526.39;;;16.04;58.41
70338;BME280;57757;53.198;19.646;2023-07-31T03:24:16;99530.21;;;16.05;58.44
70338;BME280;57757;53.198;19.646;2023-07-31T03:26:44;99536.96;;;16.06;58.57
70338;BME280;57757;53.198;19.646;2023-07-31T03:29:11;99530.67;;;16.06;58.44
70338;BME280;57757;53.198;19.646;2023-07-31T03:31:38;99532.90;;;16.07;58.56
70338;BME280;57757;53.198;19.646;2023-07-31T03:34:06;99536.00;;;16.08;58.69
70338;BME280;57757;53.198;19.646;2023-07-31T03:36:33;99542.09;;;16.09;58.81
70338;BME280;57757;53.198;19.646;2023-07-31T03:39:01;99547.27;;;16.10;58.85
70338;BME280;57757;53.198;19.646;2023-07-31T03:41:28;99545.86;;;16.10;58.95
70338;BME280;57757;53.198;19.646;2023-07-31T03:43:56;99536.85;;;16.11;58.93
70338;BME280;57757;53.198;19.646;2023-07-31T03:46:24;99540.58;;;16.13;58.98
70338;BME280;57757;53.198;19.646;2023-07-31T03:48:52;99538.75;;;16.15;59.02
70338;BME280;57757;53.198;19.646;2023-07-31T03:51:19;99538.70;;;16.16;59.06
70338;BME280;57757;53.198;19.646;2023-07-31T03:53:47;99542.83;;;16.17;59.16
70338;BME280;57757;53.198;19.646;2023-07-31T03:56:14;99554.98;;;16.19;59.17
70338;BME280;57757;53.198;19.646;2023-07-31T03:58:41;99555.61;;;16.21;59.19
70338;BME280;57757;53.198;19.646;2023-07-31T04:01:09;99547.96;;;16.22;59.24
70338;BME280;57757;53.198;19.646;2023-07-31T04:03:36;99543.09;;;16.25;59.32
70338;BME280;57757;53.198;19.646;2023-07-31T04:06:04;99549.50;;;16.29;59.34
70338;BME280;57757;53.198;19.646;2023-07-31T04:08:31;99548.58;;;16.33;59.38
70338;BME280;57757;53.198;19.646;2023-07-31T04:10:58;99551.27;;;16.38;59.39
70338;BME280;57757;53.198;19.646;2023-07-31T04:13:26;99554.91;;;16.42;59.44
70338;BME280;57757;53.198;19.646;2023-07-31T04:15:54;99552.14;;;16.45;59.44
70338;BME280;57757;53.198;19.646;2023-07-31T04:18:24;99557.90;;;16.48;59.52
70338;BME280;57757;53.198;19.646;2023-07-31T04:20:52;99563.19;;;16.50;59.51
70338;BME280;57757;53.198;19.646;2023-07-31T04:23:19;99560.34;;;16.54;59.66
70338;BME280;57757;53.198;19.646;2023-07-31T04:25:47;99562.74;;;16.59;59.67
70338;BME280;57757;53.198;19.646;2023-07-31T04:28:14;99559.96;;;16.61;59.66
70338;BME280;57757;53.198;19.646;2023-07-31T04:30:42;99563.02;;;16.60;59.63
70338;BME280;57757;53.198;19.646;2023-07-31T04:33:09;99566.48;;;16.58;59.69
70338;BME280;57757;53.198;19.646;2023-07-31T04:35:37;99567.30;;;16.59;59.81
70338;BME280;57757;53.198;19.646;2023-07-31T04:38:04;99569.68;;;16.60;59.80
70338;BME280;57757;53.198;19.646;2023-07-31T04:40:31;99566.70;;;16.60;59.79
70338;BME280;57757;53.198;19.646;2023-07-31T04:42:59;99567.91;;;16.63;59.82
70338;BME280;57757;53.198;19.646;2023-07-31T04:45:26;99570.39;;;16.66;59.90
70338;BME280;57757;53.198;19.646;2023-07-31T04:47:54;99568.92;;;16.70;59.98
70338;BME280;57757;53.198;19.646;2023-07-31T04:50:21;99569.89;;;16.75;60.01
70338;BME280;57757;53.198;19.646;2023-07-31T04:52:49;99573.48;;;16.79;59.95
70338;BME280;57757;53.198;19.646;2023-07-31T04:55:16;99574.67;;;16.83;59.96
70338;BME280;57757;53.198;19.646;2023-07-31T04:57:43;99577.92;;;16.87;60.09
70338;BME280;57757;53.198;19.646;2023-07-31T05:00:11;99580.63;;;16.92;60.04
70338;BME280;57757;53.198;19.646;2023-07-31T05:02:38;99576.65;;;16.94;60.04
70338;BME280;57757;53.198;19.646;2023-07-31T05:05:06;99580.13;;;17.01;60.12
70338;BME280;57757;53.198;19.646;2023-07-31T05:07:34;99578.09;;;17.02;60.00
70338;BME280;57757;53.198;19.646;2023-07-31T05:10:01;99576.29;;;17.03;60.00
70338;BME280;57757;53.198;19.646;2023-07-31T05:12:29;99571.82;;;17.05;59.87
70338;BME280;57757;53.198;19.646;2023-07-31T05:14:56;99575.16;;;17.07;59.97
70338;BME280;57757;53.198;19.646;2023-07-31T05:17:23;99576.15;;;17.09;59.93
70338;BME280;57757;53.198;19.646;2023-07-31T05:19:51;99573.92;;;17.10;59.98
70338;BME280;57757;53.198;19.646;2023-07-31T05:22:18;99575.08;;;17.14;60.00
70338;BME280;57757;53.198;19.646;2023-07-31T05:24:46;99574.06;;;17.19;59.98
70338;BME280;57757;53.198;19.646;2023-07-31T05:27:13;99574.58;;;17.26;59.91
70338;BME280;57757;53.198;19.646;2023-07-31T05:29:42;99579.52;;;17.34;59.96
70338;BME280;57757;53.198;19.646;2023-07-31T05:32:09;99582.85;;;17.43;59.95
70338;BME280;57757;53.198;19.646;2023-07-31T05:34:37;99580.36;;;17.51;59.81
70338;BME280;57757;53.198;19.646;2023-07-31T05:37:04;99577.36;;;17.60;59.72
70338;BME280;57757;53.198;19.646;2023-07-31T05:39:33;99575.60;;;17.66;59.58
70338;BME280;57757;53.198;19.646;2023-07-31T05:42:00;99578.90;;;17.73;59.52
70338;BME280;57757;53.198;19.646;2023-07-31T05:44:27;99576.96;;;17.79;59.54
70338;BME280;57757;53.198;19.646;2023-07-31T05:46:55;99582.17;;;17.80;59.21
70338;BME280;57757;53.198;19.646;2023-07-31T05:49:22;99585.58;;;17.79;59.22
70338;BME280;57757;53.198;19.646;2023-07-31T05:51:50;99580.86;;;17.81;59.09
70338;BME280;57757;53.198;19.646;2023-07-31T05:54:17;99584.50;;;17.85;59.23
70338;BME280;57757;53.198;19.646;2023-07-31T05:56:44;99577.59;;;17.88;59.21
70338;BME280;57757;53.198;19.646;2023-07-31T05:59:12;99580.90;;;17.97;59.34
70338;BME280;57757;53.198;19.646;2023-07-31T06:01:40;99584.52;;;18.06;59.27
70338;BME280;57757;53.198;19.646;2023-07-31T06:04:08;99587.83;;;18.15;59.21
70338;BME280;57757;53.198;19.646;2023-07-31T06:06:35;99586.83;;;18.20;59.04
70338;BME280;57757;53.198;19.646;2023-07-31T06:09:04;99593.89;;;18.25;58.98
70338;BME280;57757;53.198;19.646;2023-07-31T06:11:31;99592.98;;;18.25;58.81
70338;BME280;57757;53.198;19.646;2023-07-31T06:13:58;99592.05;;;18.29;58.84
70338;BME280;57757;53.198;19.646;2023-07-31T06:16:26;99596.24;;;18.32;58.90
70338;BME280;57757;53.198;19.646;2023-07-31T06:18:54;99593.06;;;18.40;58.99
70338;BME280;57757;53.198;19.646;2023-07-31T06:21:22;99590.86;;;18.47;58.84
70338;BME280;57757;53.198;19.646;2023-07-31T06:23:49;99592.64;;;18.52;58.93
70338;BME280;57757;53.198;19.646;2023-07-31T06:26:16;99590.92;;;18.57;58.65
70338;BME280;57757;53.198;19.646;2023-07-31T06:28:44;99591.08;;;18.60;58.69
70338;BME280;57757;53.198;19.646;2023-07-31T06:31:11;99599.24;;;18.65;58.67
70338;BME280;57757;53.198;19.646;2023-07-31T06:33:39;99599.52;;;18.69;58.61
70338;BME280;57757;53.198;19.646;2023-07-31T06:36:06;99594.91;;;18.77;58.73
70338;BME280;57757;53.198;19.646;2023-07-31T06:38:34;99595.67;;;18.86;58.57
70338;BME280;57757;53.198;19.646;2023-07-31T06:41:01;99594.22;;;18.92;58.57
70338;BME280;57757;53.198;19.646;2023-07-31T06:43:29;99593.80;;;19.01;58.58
70338;BME280;57757;53.198;19.646;2023-07-31T06:45:56;99583.06;;;19.06;58.45
70338;BME280;57757;53.198;19.646;2023-07-31T06:48:24;99583.47;;;19.10;58.37
70338;BME280;57757;53.198;19.646;2023-07-31T06:50:51;99589.20;;;19.14;58.32
70338;BME280;57757;53.198;19.646;2023-07-31T06:53:19;99594.78;;;19.15;58.25
70338;BME280;57757;53.198;19.646;2023-07-31T06:55:46;99596.42;;;19.14;58.09
70338;BME280;57757;53.198;19.646;2023-07-31T06:58:15;99599.80;;;19.16;58.21
70338;BME280;57757;53.198;19.646;2023-07-31T07:00:43;99603.77;;;19.20;58.04
70338;BME280;57757;53.198;19.646;2023-07-31T07:03:11;99608.54;;;19.20;57.74
70338;BME280;57757;53.198;19.646;2023-07-31T07:05:38;99605.80;;;19.16;57.77
70338;BME280;57757;53.198;19.646;2023-07-31T07:08:06;99606.54;;;19.11;57.42
70338;BME280;57757;53.198;19.646;2023-07-31T07:10:33;99603.45;;;19.09;57.57
70338;BME280;57757;53.198;19.646;2023-07-31T07:13:01;99603.75;;;19.13;57.55
70338;BME280;57757;53.198;19.646;2023-07-31T07:15:28;99602.65;;;19.21;57.66
70338;BME280;57757;53.198;19.646;2023-07-31T07:17:56;99600.84;;;19.29;57.54
70338;BME280;57757;53.198;19.646;2023-07-31T07:20:24;99599.59;;;19.35;57.56
70338;BME280;57757;53.198;19.646;2023-07-31T07:22:51;99605.83;;;19.44;57.54
70338;BME280;57757;53.198;19.646;2023-07-31T07:25:19;99607.42;;;19.54;57.39
70338;BME280;57757;53.198;19.646;2023-07-31T07:27:46;99609.79;;;19.71;57.59
70338;BME280;57757;53.198;19.646;2023-07-31T07:30:13;99610.11;;;19.91;57.33
70338;BME280;57757;53.198;19.646;2023-07-31T07:32:41;99607.95;;;19.94;56.87
70338;BME280;57757;53.198;19.646;2023-07-31T07:35:09;99608.20;;;19.93;56.86
70338;BME280;57757;53.198;19.646;2023-07-31T07:37:36;99610.31;;;19.93;56.71
70338;BME280;57757;53.198;19.646;2023-07-31T07:40:04;99607.23;;;19.95;56.73
70338;BME280;57757;53.198;19.646;2023-07-31T07:42:32;99607.61;;;19.97;56.65
70338;BME280;57757;53.198;19.646;2023-07-31T07:45:00;99599.71;;;20.03;56.85
70338;BME280;57757;53.198;19.646;2023-07-31T07:47:27;99599.85;;;20.16;56.82
70338;BME280;57757;53.198;19.646;2023-07-31T07:49:55;99607.05;;;20.24;56.38
70338;BME280;57757;53.198;19.646;2023-07-31T07:52:23;99605.82;;;20.19;55.99
70338;BME280;57757;53.198;19.646;2023-07-31T07:54:50;99605.14;;;20.16;55.99
70338;BME280;57757;53.198;19.646;2023-07-31T07:57:18;99608.63;;;20.12;55.87
70338;BME280;57757;53.198;19.646;2023-07-31T07:59:46;99605.52;;;20.11;55.84
70338;BME280;57757;53.198;19.646;2023-07-31T08:02:13;99605.56;;;20.20;55.93
70338;BME280;57757;53.198;19.646;2023-07-31T08:04:41;99607.33;;;20.30;55.83
70338;BME280;57757;53.198;19.646;2023-07-31T08:07:11;99606.48;;;20.42;55.57
70338;BME280;57757;53.198;19.646;2023-07-31T08:09:39;99610.06;;;20.48;55.15
70338;BME280;57757;53.198;19.646;2023-07-31T08:12:07;99612.04;;;20.48;54.92
70338;BME280;57757;53.198;19.646;2023-07-31T08:14:34;99610.33;;;20.52;54.97
70338;BME280;57757;53.198;19.646;2023-07-31T08:17:03;99614.02;;;20.62;54.82
70338;BME280;57757;53.198;19.646;2023-07-31T08:19:31;99607.52;;;20.68;54.58
70338;BME280;57757;53.198;19.646;2023-07-31T08:21:58;99604.80;;;20.74;54.50
70338;BME280;57757;53.198;19.646;2023-07-31T08:24:26;99606.83;;;20.82;54.38
70338;BME280;57757;53.198;19.646;2023-07-31T08:26:53;99605.93;;;20.96;54.35
70338;BME280;57757;53.198;19.646;2023-07-31T08:29:21;99600.40;;;21.09;53.98
70338;BME280;57757;53.198;19.646;2023-07-31T08:31:48;99600.56;;;21.18;53.68
70338;BME280;57757;53.198;19.646;2023-07-31T08:34:15;99601.41;;;21.28;53.75
70338;BME280;57757;53.198;19.646;2023-07-31T08:36:43;99592.98;;;21.41;53.48
70338;BME280;57757;53.198;19.646;2023-07-31T08:39:10;99603.51;;;21.49;53.15
70338;BME280;57757;53.198;19.646;2023-07-31T08:41:38;99604.05;;;21.47;52.82
70338;BME280;57757;53.198;19.646;2023-07-31T08:44:10;99599.98;;;21.44;52.80
70338;BME280;57757;53.198;19.646;2023-07-31T08:46:39;99600.08;;;21.52;52.86
70338;BME280;57757;53.198;19.646;2023-07-31T08:49:09;99603.60;;;21.59;52.17
70338;BME280;57757;53.198;19.646;2023-07-31T08:51:38;99597.35;;;21.56;52.28
70338;BME280;57757;53.198;19.646;2023-07-31T08:54:06;99588.98;;;21.59;52.21
70338;BME280;57757;53.198;19.646;2023-07-31T08:56:34;99578.59;;;21.69;52.37
70338;BME280;57757;53.198;19.646;2023-07-31T08:59:04;99583.75;;;21.82;52.15
70338;BME280;57757;53.198;19.646;2023-07-31T09:01:36;99585.07;;;21.90;51.98
70338;BME280;57757;53.198;19.646;2023-07-31T09:04:06;99580.42;;;21.93;51.51
70338;BME280;57757;53.198;19.646;2023-07-31T09:06:37;99587.30;;;21.91;51.14
70338;BME280;57757;53.198;19.646;2023-07-31T09:09:06;99576.43;;;21.87;51.35
70338;BME280;57757;53.198;19.646;2023-07-31T09:11:33;99581.38;;;21.92;51.33
70338;BME280;57757;53.198;19.646;2023-07-31T09:14:02;99583.45;;;21.97;51.32
70338;BME280;57757;53.198;19.646;2023-07-31T09:16:35;99581.30;;;22.02;50.90
70338;BME280;57757;53.198;19.646;2023-07-31T09:19:03;99574.70;;;22.07;50.81
70338;BME280;57757;53.198;19.646;2023-07-31T09:21:32;99585.93;;;22.19;50.66
70338;BME280;57757;53.198;19.646;2023-07-31T09:24:00;99584.45;;;22.22;50.22
70338;BME280;57757;53.198;19.646;2023-07-31T09:29:00;99570.60;;;22.31;50.32
70338;BME280;57757;53.198;19.646;2023-07-31T09:34:06;99571.85;;;22.55;49.86
70338;BME280;57757;53.198;19.646;2023-07-31T09:36:41;99574.52;;;22.52;49.47
70338;BME280;57757;53.198;19.646;2023-07-31T09:39:11;99571.19;;;22.56;49.48
70338;BME280;57757;53.198;19.646;2023-07-31T09:41:42;99566.55;;;22.61;49.41
70338;BME280;57757;53.198;19.646;2023-07-31T09:44:11;99569.95;;;22.58;49.19
70338;BME280;57757;53.198;19.646;2023-07-31T09:46:39;99571.41;;;22.64;49.22
70338;BME280;57757;53.198;19.646;2023-07-31T09:51:38;99556.52;;;23.02;49.01
70338;BME280;57757;53.198;19.646;2023-07-31T09:54:13;99562.32;;;23.17;48.59
70338;BME280;57757;53.198;19.646;2023-07-31T09:56:44;99557.79;;;23.28;48.71
70338;BME280;57757;53.198;19.646;2023-07-31T09:59:15;99566.92;;;23.53;48.72
70338;BME280;57757;53.198;19.646;2023-07-31T10:01:45;99564.23;;;23.59;47.99
70338;BME280;57757;53.198;19.646;2023-07-31T10:04:14;99562.02;;;23.58;47.82
70338;BME280;57757;53.198;19.646;2023-07-31T10:06:43;99561.80;;;23.53;47.55
70338;BME280;57757;53.198;19.646;2023-07-31T10:09:13;99549.44;;;23.56;47.74
70338;BME280;57757;53.198;19.646;2023-07-31T10:11:53;99546.13;;;23.69;47.74
70338;BME280;57757;53.198;19.646;2023-07-31T10:14:23;99553.49;;;23.84;47.53
70338;BME280;57757;53.198;19.646;2023-07-31T10:16:51;99544.41;;;23.76;47.38
70338;BME280;57757;53.198;19.646;2023-07-31T10:19:20;99540.66;;;23.79;47.65
70338;BME280;57757;53.198;19.646;2023-07-31T10:21:49;99544.48;;;23.95;47.57
70338;BME280;57757;53.198;19.646;2023-07-31T10:24:17;99549.45;;;24.09;47.20
70338;BME280;57757;53.198;19.646;2023-07-31T10:26:45;99553.46;;;24.08;46.96
70338;BME280;57757;53.198;19.646;2023-07-31T10:29:15;99544.34;;;23.97;46.54
70338;BME280;57757;53.198;19.646;2023-07-31T10:31:46;99541.05;;;24.00;46.84
70338;BME280;57757;53.198;19.646;2023-07-31T10:34:14;99542.55;;;24.23;47.18
70338;BME280;57757;53.198;19.646;2023-07-31T10:36:42;99536.86;;;24.43;46.74
70338;BME280;57757;53.198;19.646;2023-07-31T10:39:33;99532.17;;;24.65;46.56
70338;BME280;57757;53.198;19.646;2023-07-31T10:42:10;99531.30;;;24.80;46.03
70338;BME280;57757;53.198;19.646;2023-07-31T10:44:37;99522.98;;;24.89;46.22
70338;BME280;57757;53.198;19.646;2023-07-31T10:47:06;99527.22;;;24.91;45.85
70338;BME280;57757;53.198;19.646;2023-07-31T10:49:34;99523.98;;;24.86;45.94
70338;BME280;57757;53.198;19.646;2023-07-31T10:52:03;99532.54;;;24.92;45.94
70338;BME280;57757;53.198;19.646;2023-07-31T10:54:33;99524.27;;;25.11;45.84
70338;BME280;57757;53.198;19.646;2023-07-31T10:57:01;99518.23;;;25.27;45.50
70338;BME280;57757;53.198;19.646;2023-07-31T10:59:34;99524.63;;;25.45;45.12
70338;BME280;57757;53.198;19.646;2023-07-31T11:02:02;99518.65;;;25.44;44.93
70338;BME280;57757;53.198;19.646;2023-07-31T11:04:30;99521.36;;;25.46;45.03
70338;BME280;57757;53.198;19.646;2023-07-31T11:07:01;99519.55;;;25.44;44.71
70338;BME280;57757;53.198;19.646;2023-07-31T11:09:32;99515.48;;;25.40;44.57
70338;BME280;57757;53.198;19.646;2023-07-31T11:12:00;99513.70;;;25.42;44.66
70338;BME280;57757;53.198;19.646;2023-07-31T11:14:27;99507.52;;;25.41;44.45
70338;BME280;57757;53.198;19.646;2023-07-31T11:16:55;99505.21;;;25.40;44.53
70338;BME280;57757;53.198;19.646;2023-07-31T11:19:24;99508.98;;;25.27;44.42
70338;BME280;57757;53.198;19.646;2023-07-31T11:21:52;99503.25;;;25.29;44.67
70338;BME280;57757;53.198;19.646;2023-07-31T11:24:20;99494.13;;;25.31;44.54
70338;BME280;57757;53.198;19.646;2023-07-31T11:26:52;99497.20;;;25.27;44.43
70338;BME280;57757;53.198;19.646;2023-07-31T11:29:20;99496.55;;;25.13;44.21
70338;BME280;57757;53.198;19.646;2023-07-31T11:31:47;99492.34;;;25.05;44.12
70338;BME280;57757;53.198;19.646;2023-07-31T11:34:16;99492.52;;;24.99;44.17
70338;BME280;57757;53.198;19.646;2023-07-31T11:36:54;99492.65;;;24.94;43.99
70338;BME280;57757;53.198;19.646;2023-07-31T11:39:25;99493.66;;;24.77;43.46
70338;BME280;57757;53.198;19.646;2023-07-31T11:41:58;99505.81;;;24.42;43.29
70338;BME280;57757;53.198;19.646;2023-07-31T11:44:26;99501.73;;;24.13;43.59
70338;BME280;57757;53.198;19.646;2023-07-31T11:47:00;99490.23;;;23.97;43.68
70338;BME280;57757;53.198;19.646;2023-07-31T11:49:29;99484.67;;;24.15;43.98
70338;BME280;57757;53.198;19.646;2023-07-31T11:51:57;99477.67;;;24.50;44.05
70338;BME280;57757;53.198;19.646;2023-07-31T11:54:24;99474.11;;;24.49;43.73
70338;BME280;57757;53.198;19.646;2023-07-31T11:56:51;99471.48;;;24.33;43.62
70338;BME280;57757;53.198;19.646;2023-07-31T11:59:19;99477.02;;;24.13;43.68
70338;BME280;57757;53.198;19.646;2023-07-31T12:01:47;99478.36;;;23.86;43.49
70338;BME280;57757;53.198;19.646;2023-07-31T12:04:17;99483.36;;;23.52;43.40
70338;BME280;57757;53.198;19.646;2023-07-31T12:06:47;99484.83;;;23.25;43.58
70338;BME280;57757;53.198;19.646;2023-07-31T12:09:14;99481.40;;;22.99;43.70
70338;BME280;57757;53.198;19.646;2023-07-31T12:11:46;99484.53;;;22.84;43.71
70338;BME280;57757;53.198;19.646;2023-07-31T12:14:30;99482.33;;;22.74;43.90
70338;BME280;57757;53.198;19.646;2023-07-31T12:17:00;99479.14;;;22.61;43.72
70338;BME280;57757;53.198;19.646;2023-07-31T12:19:29;99476.16;;;22.48;44.01
70338;BME280;57757;53.198;19.646;2023-07-31T12:21:59;99478.30;;;22.35;43.94
70338;BME280;57757;53.198;19.646;2023-07-31T12:24:27;99478.73;;;22.24;43.76
70338;BME280;57757;53.198;19.646;2023-07-31T12:26:55;99477.14;;;22.09;43.95
70338;BME280;57757;53.198;19.646;2023-07-31T12:29:23;99477.13;;;21.96;44.01
70338;BME280;57757;53.198;19.646;2023-07-31T12:31:50;99485.83;;;21.87;44.16
70338;BME280;57757;53.198;19.646;2023-07-31T12:34:19;99499.31;;;21.75;44.07
70338;BME280;57757;53.198;19.646;2023-07-31T12:36:53;99503.38;;;21.63;44.22
70338;BME280;57757;53.198;19.646;2023-07-31T12:39:20;99508.00;;;21.44;44.23
70338;BME280;57757;53.198;19.646;2023-07-31T12:41:48;99510.23;;;21.29;44.50
70338;BME280;57757;53.198;19.646;2023-07-31T12:44:15;99512.34;;;21.14;44.63
70338;BME280;57757;53.198;19.646;2023-07-31T12:46:42;99522.45;;;20.97;45.02
70338;BME280;57757;53.198;19.646;2023-07-31T12:49:10;99523.85;;;20.77;45.02
70338;BME280;57757;53.198;19.646;2023-07-31T12:51:38;99530.52;;;20.52;45.39
70338;BME280;57757;53.198;19.646;2023-07-31T12:54:06;99532.40;;;20.24;45.58
70338;BME280;57757;53.198;19.646;2023-07-31T12:56:34;99524.65;;;20.04;45.87
70338;BME280;57757;53.198;19.646;2023-07-31T12:59:02;99517.00;;;19.91;46.18
70338;BME280;57757;53.198;19.646;2023-07-31T13:01:29;99508.00;;;19.86;46.42
70338;BME280;57757;53.198;19.646;2023-07-31T13:03:57;99500.75;;;19.83;46.62
70338;BME280;57757;53.198;19.646;2023-07-31T13:06:25;99499.70;;;19.84;46.84